sensor_id;sensor_type;location;lat;lon;timestamp;P1;durP1;ratioP1;P2;durP2;ratioP2
59062;SDS011;44851;45.648;9.004;2023-09-30T00:00:36;20.33;;;18.33;;
59062;SDS011;44851;45.648;9.004;2023-09-30T00:03:01;19.03;;;17.37;;
59062;SDS011;44851;45.648;9.004;2023-09-30T00:05:27;22.00;;;19.77;;
59062;SDS011;44851;45.648;9.004;2023-09-30T00:07:52;19.77;;;17.97;;
59062;SDS011;44851;45.648;9.004;2023-09-30T00:10:18;19.87;;;17.87;;
59062;SDS011;44851;45.648;9.004;2023-09-30T00:12:43;19.83;;;17.93;;
59062;SDS011;44851;45.648;9.004;2023-09-30T00:15:09;18.93;;;17.23;;
59062;SDS011;44851;45.648;9.004;2023-09-30T00:17:35;20.27;;;18.27;;
59062;SDS011;44851;45.648;9.004;2023-09-30T00:20:00;20.60;;;18.60;;
59062;SDS011;44851;45.648;9.004;2023-09-30T00:22:25;19.33;;;17.40;;
59062;SDS011;44851;45.648;9.004;2023-09-30T00:24:51;19.50;;;17.67;;
59062;SDS011;44851;45.648;9.004;2023-09-30T00:27:16;19.50;;;17.70;;
59062;SDS011;44851;45.648;9.004;2023-09-30T00:29:41;18.93;;;17.23;;
59062;SDS011;44851;45.648;9.004;2023-09-30T00:32:07;19.37;;;17.47;;
59062;SDS011;44851;45.648;9.004;2023-09-30T00:34:35;20.10;;;18.20;;
59062;SDS011;44851;45.648;9.004;2023-09-30T00:37:00;20.47;;;18.37;;
59062;SDS011;44851;45.648;9.004;2023-09-30T00:39:26;19.63;;;17.73;;
59062;SDS011;44851;45.648;9.004;2023-09-30T00:41:55;19.20;;;17.33;;
59062;SDS011;44851;45.648;9.004;2023-09-30T00:44:23;19.57;;;17.67;;
59062;SDS011;44851;45.648;9.004;2023-09-30T00:46:48;18.77;;;16.97;;
59062;SDS011;44851;45.648;9.004;2023-09-30T00:49:14;19.17;;;17.27;;
59062;SDS011;44851;45.648;9.004;2023-09-30T00:51:39;19.37;;;17.47;;
59062;SDS011;44851;45.648;9.004;2023-09-30T00:54:05;18.97;;;17.17;;
59062;SDS011;44851;45.648;9.004;2023-09-30T00:56:31;18.40;;;16.83;;
59062;SDS011;44851;45.648;9.004;2023-09-30T00:58:57;19.00;;;17.27;;
59062;SDS011;44851;45.648;9.004;2023-09-30T01:01:24;20.47;;;18.30;;
59062;SDS011;44851;45.648;9.004;2023-09-30T01:03:50;18.87;;;17.17;;
59062;SDS011;44851;45.648;9.004;2023-09-30T01:06:15;19.40;;;17.23;;
59062;SDS011;44851;45.648;9.004;2023-09-30T01:08:40;18.97;;;17.13;;
59062;SDS011;44851;45.648;9.004;2023-09-30T01:11:06;19.30;;;17.43;;
59062;SDS011;44851;45.648;9.004;2023-09-30T01:13:34;18.93;;;17.03;;
59062;SDS011;44851;45.648;9.004;2023-09-30T01:16:04;18.63;;;16.87;;
59062;SDS011;44851;45.648;9.004;2023-09-30T01:18:30;19.67;;;17.67;;
59062;SDS011;44851;45.648;9.004;2023-09-30T01:20:56;19.13;;;17.37;;
59062;SDS011;44851;45.648;9.004;2023-09-30T01:23:24;19.20;;;17.43;;
59062;SDS011;44851;45.648;9.004;2023-09-30T01:25:50;19.30;;;17.63;;
59062;SDS011;44851;45.648;9.004;2023-09-30T01:28:15;19.67;;;17.67;;
59062;SDS011;44851;45.648;9.004;2023-09-30T01:30:41;20.37;;;18.57;;
59062;SDS011;44851;45.648;9.004;2023-09-30T01:33:09;19.73;;;17.73;;
59062;SDS011;44851;45.648;9.004;2023-09-30T01:35:35;18.77;;;17.10;;
59062;SDS011;44851;45.648;9.004;2023-09-30T01:38:00;19.17;;;17.17;;
59062;SDS011;44851;45.648;9.004;2023-09-30T01:40:25;19.27;;;17.53;;
59062;SDS011;44851;45.648;9.004;2023-09-30T01:42:51;19.13;;;17.43;;
59062;SDS011;44851;45.648;9.004;2023-09-30T01:45:16;19.90;;;17.90;;
59062;SDS011;44851;45.648;9.004;2023-09-30T01:47:41;20.83;;;18.57;;
59062;SDS011;44851;45.648;9.004;2023-09-30T01:50:07;20.20;;;18.30;;
59062;SDS011;44851;45.648;9.004;2023-09-30T01:52:32;19.70;;;17.80;;
59062;SDS011;44851;45.648;9.004;2023-09-30T01:54:58;18.77;;;17.17;;
59062;SDS011;44851;45.648;9.004;2023-09-30T01:57:23;19.93;;;17.93;;
59062;SDS011;44851;45.648;9.004;2023-09-30T01:59:49;20.67;;;18.53;;
59062;SDS011;44851;45.648;9.004;2023-09-30T02:02:14;19.73;;;17.83;;
59062;SDS011;44851;45.648;9.004;2023-09-30T02:04:40;19.20;;;17.20;;
59062;SDS011;44851;45.648;9.004;2023-09-30T02:07:06;20.23;;;18.13;;
59062;SDS011;44851;45.648;9.004;2023-09-30T02:09:31;19.73;;;17.63;;
59062;SDS011;44851;45.648;9.004;2023-09-30T02:11:56;19.80;;;18.00;;
59062;SDS011;44851;45.648;9.004;2023-09-30T02:14:22;20.73;;;18.53;;
59062;SDS011;44851;45.648;9.004;2023-09-30T02:16:48;20.70;;;18.60;;
59062;SDS011;44851;45.648;9.004;2023-09-30T02:19:13;20.23;;;18.40;;
59062;SDS011;44851;45.648;9.004;2023-09-30T02:21:38;20.70;;;18.60;;
59062;SDS011;44851;45.648;9.004;2023-09-30T02:24:04;19.73;;;17.77;;
59062;SDS011;44851;45.648;9.004;2023-09-30T02:26:31;19.67;;;17.93;;
59062;SDS011;44851;45.648;9.004;2023-09-30T02:28:57;20.27;;;18.33;;
59062;SDS011;44851;45.648;9.004;2023-09-30T02:31:23;20.60;;;18.43;;
59062;SDS011;44851;45.648;9.004;2023-09-30T02:33:48;20.60;;;18.70;;
59062;SDS011;44851;45.648;9.004;2023-09-30T02:36:15;20.50;;;18.40;;
59062;SDS011;44851;45.648;9.004;2023-09-30T02:38:41;21.03;;;19.03;;
59062;SDS011;44851;45.648;9.004;2023-09-30T02:41:06;19.07;;;17.33;;
59062;SDS011;44851;45.648;9.004;2023-09-30T02:43:32;19.67;;;17.77;;
59062;SDS011;44851;45.648;9.004;2023-09-30T02:45:57;18.50;;;16.80;;
59062;SDS011;44851;45.648;9.004;2023-09-30T02:48:23;18.87;;;17.17;;
59062;SDS011;44851;45.648;9.004;2023-09-30T02:50:48;19.57;;;17.40;;
59062;SDS011;44851;45.648;9.004;2023-09-30T02:53:14;18.10;;;16.50;;
59062;SDS011;44851;45.648;9.004;2023-09-30T02:55:40;17.70;;;16.10;;
59062;SDS011;44851;45.648;9.004;2023-09-30T02:58:08;17.83;;;15.97;;
59062;SDS011;44851;45.648;9.004;2023-09-30T03:00:34;18.07;;;15.93;;
59062;SDS011;44851;45.648;9.004;2023-09-30T03:03:01;18.00;;;16.07;;
59062;SDS011;44851;45.648;9.004;2023-09-30T03:05:27;17.63;;;15.93;;
59062;SDS011;44851;45.648;9.004;2023-09-30T03:07:55;17.70;;;16.00;;
59062;SDS011;44851;45.648;9.004;2023-09-30T03:10:21;19.40;;;17.43;;
59062;SDS011;44851;45.648;9.004;2023-09-30T03:12:51;18.23;;;16.33;;
59062;SDS011;44851;45.648;9.004;2023-09-30T03:15:17;18.67;;;16.97;;
59062;SDS011;44851;45.648;9.004;2023-09-30T03:17:43;18.77;;;16.97;;
59062;SDS011;44851;45.648;9.004;2023-09-30T03:20:09;18.03;;;16.37;;
59062;SDS011;44851;45.648;9.004;2023-09-30T03:22:43;18.93;;;17.13;;
59062;SDS011;44851;45.648;9.004;2023-09-30T03:25:12;18.53;;;16.63;;
59062;SDS011;44851;45.648;9.004;2023-09-30T03:27:40;19.23;;;17.43;;
59062;SDS011;44851;45.648;9.004;2023-09-30T03:30:06;18.30;;;16.70;;
59062;SDS011;44851;45.648;9.004;2023-09-30T03:32:33;17.87;;;16.20;;
59062;SDS011;44851;45.648;9.004;2023-09-30T03:35:01;17.97;;;16.17;;
59062;SDS011;44851;45.648;9.004;2023-09-30T03:37:27;20.03;;;18.07;;
59062;SDS011;44851;45.648;9.004;2023-09-30T03:39:56;18.17;;;16.57;;
59062;SDS011;44851;45.648;9.004;2023-09-30T03:42:21;18.80;;;17.13;;
59062;SDS011;44851;45.648;9.004;2023-09-30T03:44:47;19.10;;;17.23;;
59062;SDS011;44851;45.648;9.004;2023-09-30T03:47:14;18.60;;;16.87;;
59062;SDS011;44851;45.648;9.004;2023-09-30T03:49:40;17.47;;;15.87;;
59062;SDS011;44851;45.648;9.004;2023-09-30T03:52:06;17.07;;;15.53;;
59062;SDS011;44851;45.648;9.004;2023-09-30T03:54:33;20.17;;;17.47;;
59062;SDS011;44851;45.648;9.004;2023-09-30T03:56:58;18.00;;;16.23;;
59062;SDS011;44851;45.648;9.004;2023-09-30T03:59:25;17.33;;;15.47;;
59062;SDS011;44851;45.648;9.004;2023-09-30T04:01:51;17.50;;;15.90;;
59062;SDS011;44851;45.648;9.004;2023-09-30T04:04:18;18.03;;;16.43;;
59062;SDS011;44851;45.648;9.004;2023-09-30T04:06:44;18.33;;;16.67;;
59062;SDS011;44851;45.648;9.004;2023-09-30T04:09:12;17.50;;;15.83;;
59062;SDS011;44851;45.648;9.004;2023-09-30T04:11:39;17.93;;;16.23;;
59062;SDS011;44851;45.648;9.004;2023-09-30T04:14:05;18.23;;;16.63;;
59062;SDS011;44851;45.648;9.004;2023-09-30T04:16:32;18.90;;;17.10;;
59062;SDS011;44851;45.648;9.004;2023-09-30T04:18:58;18.57;;;16.97;;
59062;SDS011;44851;45.648;9.004;2023-09-30T04:21:24;18.97;;;17.17;;
59062;SDS011;44851;45.648;9.004;2023-09-30T04:23:49;19.03;;;17.23;;
59062;SDS011;44851;45.648;9.004;2023-09-30T04:26:15;18.67;;;16.87;;
59062;SDS011;44851;45.648;9.004;2023-09-30T04:28:40;18.70;;;16.90;;
59062;SDS011;44851;45.648;9.004;2023-09-30T04:31:05;18.67;;;16.87;;
59062;SDS011;44851;45.648;9.004;2023-09-30T04:33:32;19.23;;;17.33;;
59062;SDS011;44851;45.648;9.004;2023-09-30T04:36:00;20.00;;;18.10;;
59062;SDS011;44851;45.648;9.004;2023-09-30T04:38:26;19.70;;;17.60;;
59062;SDS011;44851;45.648;9.004;2023-09-30T04:40:52;19.23;;;17.23;;
59062;SDS011;44851;45.648;9.004;2023-09-30T04:43:19;18.87;;;16.80;;
59062;SDS011;44851;45.648;9.004;2023-09-30T04:45:44;18.90;;;16.93;;
59062;SDS011;44851;45.648;9.004;2023-09-30T04:48:10;18.77;;;16.87;;
59062;SDS011;44851;45.648;9.004;2023-09-30T04:50:35;18.67;;;16.77;;
59062;SDS011;44851;45.648;9.004;2023-09-30T04:53:01;20.97;;;19.07;;
59062;SDS011;44851;45.648;9.004;2023-09-30T04:55:27;19.83;;;17.97;;
59062;SDS011;44851;45.648;9.004;2023-09-30T04:57:53;20.53;;;18.63;;
59062;SDS011;44851;45.648;9.004;2023-09-30T05:00:19;19.67;;;17.90;;
59062;SDS011;44851;45.648;9.004;2023-09-30T05:02:50;18.97;;;17.13;;
59062;SDS011;44851;45.648;9.004;2023-09-30T05:05:17;17.43;;;15.73;;
59062;SDS011;44851;45.648;9.004;2023-09-30T05:07:43;17.27;;;15.60;;
59062;SDS011;44851;45.648;9.004;2023-09-30T05:10:11;18.73;;;16.87;;
59062;SDS011;44851;45.648;9.004;2023-09-30T05:12:40;17.27;;;15.57;;
59062;SDS011;44851;45.648;9.004;2023-09-30T05:15:10;17.83;;;16.23;;
59062;SDS011;44851;45.648;9.004;2023-09-30T05:17:36;17.43;;;15.83;;
59062;SDS011;44851;45.648;9.004;2023-09-30T05:20:02;18.27;;;16.47;;
59062;SDS011;44851;45.648;9.004;2023-09-30T05:22:32;17.50;;;15.90;;
59062;SDS011;44851;45.648;9.004;2023-09-30T05:24:58;17.83;;;16.13;;
59062;SDS011;44851;45.648;9.004;2023-09-30T05:27:24;18.13;;;16.33;;
59062;SDS011;44851;45.648;9.004;2023-09-30T05:29:49;17.20;;;15.60;;
59062;SDS011;44851;45.648;9.004;2023-09-30T05:32:15;17.67;;;15.50;;
59062;SDS011;44851;45.648;9.004;2023-09-30T05:34:40;17.03;;;15.60;;
59062;SDS011;44851;45.648;9.004;2023-09-30T05:37:06;17.27;;;15.63;;
59062;SDS011;44851;45.648;9.004;2023-09-30T05:39:31;18.73;;;16.13;;
59062;SDS011;44851;45.648;9.004;2023-09-30T05:41:57;15.90;;;14.50;;
59062;SDS011;44851;45.648;9.004;2023-09-30T05:44:22;16.07;;;14.37;;
59062;SDS011;44851;45.648;9.004;2023-09-30T05:46:48;17.27;;;15.57;;
59062;SDS011;44851;45.648;9.004;2023-09-30T05:49:13;16.80;;;15.33;;
59062;SDS011;44851;45.648;9.004;2023-09-30T05:51:39;16.60;;;15.10;;
59062;SDS011;44851;45.648;9.004;2023-09-30T05:54:06;17.67;;;15.83;;
59062;SDS011;44851;45.648;9.004;2023-09-30T05:56:34;16.43;;;14.97;;
59062;SDS011;44851;45.648;9.004;2023-09-30T05:59:00;17.73;;;16.03;;
59062;SDS011;44851;45.648;9.004;2023-09-30T06:01:25;16.20;;;14.80;;
59062;SDS011;44851;45.648;9.004;2023-09-30T06:03:52;16.50;;;15.10;;
59062;SDS011;44851;45.648;9.004;2023-09-30T06:06:18;17.13;;;15.63;;
59062;SDS011;44851;45.648;9.004;2023-09-30T06:08:43;16.87;;;15.37;;
59062;SDS011;44851;45.648;9.004;2023-09-30T06:11:17;18.27;;;16.47;;
59062;SDS011;44851;45.648;9.004;2023-09-30T06:13:49;17.33;;;15.83;;
59062;SDS011;44851;45.648;9.004;2023-09-30T06:16:19;17.20;;;15.70;;
59062;SDS011;44851;45.648;9.004;2023-09-30T06:18:44;16.93;;;15.40;;
59062;SDS011;44851;45.648;9.004;2023-09-30T06:21:10;17.00;;;15.20;;
59062;SDS011;44851;45.648;9.004;2023-09-30T06:23:36;16.67;;;15.17;;
59062;SDS011;44851;45.648;9.004;2023-09-30T06:26:02;17.03;;;15.17;;
59062;SDS011;44851;45.648;9.004;2023-09-30T06:28:27;17.50;;;15.47;;
59062;SDS011;44851;45.648;9.004;2023-09-30T06:30:56;16.67;;;14.97;;
59062;SDS011;44851;45.648;9.004;2023-09-30T06:33:21;16.97;;;14.90;;
59062;SDS011;44851;45.648;9.004;2023-09-30T06:35:47;16.83;;;15.23;;
59062;SDS011;44851;45.648;9.004;2023-09-30T06:38:18;16.83;;;15.33;;
59062;SDS011;44851;45.648;9.004;2023-09-30T06:40:44;16.60;;;14.97;;
59062;SDS011;44851;45.648;9.004;2023-09-30T06:43:11;16.57;;;15.00;;
59062;SDS011;44851;45.648;9.004;2023-09-30T06:45:37;16.10;;;14.47;;
59062;SDS011;44851;45.648;9.004;2023-09-30T06:48:07;16.50;;;15.00;;
59062;SDS011;44851;45.648;9.004;2023-09-30T06:50:33;16.23;;;14.70;;
59062;SDS011;44851;45.648;9.004;2023-09-30T06:52:58;16.57;;;15.00;;
59062;SDS011;44851;45.648;9.004;2023-09-30T06:55:24;16.47;;;14.83;;
59062;SDS011;44851;45.648;9.004;2023-09-30T06:57:52;16.77;;;15.23;;
59062;SDS011;44851;45.648;9.004;2023-09-30T07:00:17;17.03;;;15.33;;
59062;SDS011;44851;45.648;9.004;2023-09-30T07:02:42;15.60;;;14.10;;
59062;SDS011;44851;45.648;9.004;2023-09-30T07:05:12;16.40;;;14.90;;
59062;SDS011;44851;45.648;9.004;2023-09-30T07:07:38;15.33;;;13.77;;
59062;SDS011;44851;45.648;9.004;2023-09-30T07:10:07;16.37;;;14.77;;
59062;SDS011;44851;45.648;9.004;2023-09-30T07:12:33;16.37;;;14.63;;
59062;SDS011;44851;45.648;9.004;2023-09-30T07:15:01;16.33;;;14.80;;
59062;SDS011;44851;45.648;9.004;2023-09-30T07:17:27;16.07;;;14.50;;
59062;SDS011;44851;45.648;9.004;2023-09-30T07:19:53;15.63;;;14.33;;
59062;SDS011;44851;45.648;9.004;2023-09-30T07:22:18;17.50;;;15.53;;
59062;SDS011;44851;45.648;9.004;2023-09-30T07:24:43;16.53;;;14.93;;
59062;SDS011;44851;45.648;9.004;2023-09-30T07:27:09;15.23;;;13.83;;
59062;SDS011;44851;45.648;9.004;2023-09-30T07:29:34;16.40;;;14.87;;
59062;SDS011;44851;45.648;9.004;2023-09-30T07:32:00;16.50;;;15.10;;
59062;SDS011;44851;45.648;9.004;2023-09-30T07:34:25;16.53;;;14.83;;
59062;SDS011;44851;45.648;9.004;2023-09-30T07:36:50;14.70;;;13.30;;
59062;SDS011;44851;45.648;9.004;2023-09-30T07:39:16;14.93;;;13.63;;
59062;SDS011;44851;45.648;9.004;2023-09-30T07:41:42;15.90;;;14.50;;
59062;SDS011;44851;45.648;9.004;2023-09-30T07:44:07;15.50;;;14.00;;
59062;SDS011;44851;45.648;9.004;2023-09-30T07:46:34;15.90;;;14.47;;
59062;SDS011;44851;45.648;9.004;2023-09-30T07:49:00;15.07;;;13.67;;
59062;SDS011;44851;45.648;9.004;2023-09-30T07:51:25;16.20;;;14.60;;
59062;SDS011;44851;45.648;9.004;2023-09-30T07:53:51;16.20;;;14.53;;
59062;SDS011;44851;45.648;9.004;2023-09-30T07:56:17;16.60;;;15.10;;
59062;SDS011;44851;45.648;9.004;2023-09-30T07:58:42;17.53;;;15.83;;
59062;SDS011;44851;45.648;9.004;2023-09-30T08:01:08;17.93;;;16.13;;
59062;SDS011;44851;45.648;9.004;2023-09-30T08:03:33;15.50;;;14.00;;
59062;SDS011;44851;45.648;9.004;2023-09-30T08:05:59;16.30;;;14.77;;
59062;SDS011;44851;45.648;9.004;2023-09-30T08:08:25;17.00;;;15.53;;
59062;SDS011;44851;45.648;9.004;2023-09-30T08:10:50;17.87;;;16.10;;
59062;SDS011;44851;45.648;9.004;2023-09-30T08:13:20;17.83;;;16.33;;
59062;SDS011;44851;45.648;9.004;2023-09-30T08:15:45;18.07;;;16.40;;
59062;SDS011;44851;45.648;9.004;2023-09-30T08:18:11;18.60;;;16.80;;
59062;SDS011;44851;45.648;9.004;2023-09-30T08:20:36;20.93;;;18.97;;
59062;SDS011;44851;45.648;9.004;2023-09-30T08:23:01;19.17;;;17.27;;
59062;SDS011;44851;45.648;9.004;2023-09-30T08:25:28;16.30;;;14.87;;
59062;SDS011;44851;45.648;9.004;2023-09-30T08:27:53;16.87;;;15.27;;
59062;SDS011;44851;45.648;9.004;2023-09-30T08:30:19;16.47;;;14.97;;
59062;SDS011;44851;45.648;9.004;2023-09-30T08:32:45;17.97;;;16.30;;
59062;SDS011;44851;45.648;9.004;2023-09-30T08:35:11;17.70;;;16.03;;
59062;SDS011;44851;45.648;9.004;2023-09-30T08:37:38;15.77;;;13.93;;
59062;SDS011;44851;45.648;9.004;2023-09-30T08:40:04;16.47;;;14.97;;
59062;SDS011;44851;45.648;9.004;2023-09-30T08:42:30;15.60;;;14.30;;
59062;SDS011;44851;45.648;9.004;2023-09-30T08:44:58;15.27;;;13.90;;
59062;SDS011;44851;45.648;9.004;2023-09-30T08:47:27;15.50;;;14.13;;
59062;SDS011;44851;45.648;9.004;2023-09-30T08:49:53;14.57;;;13.27;;
59062;SDS011;44851;45.648;9.004;2023-09-30T08:52:22;14.73;;;13.30;;
59062;SDS011;44851;45.648;9.004;2023-09-30T08:54:48;15.73;;;14.30;;
59062;SDS011;44851;45.648;9.004;2023-09-30T08:57:13;15.67;;;14.20;;
59062;SDS011;44851;45.648;9.004;2023-09-30T08:59:43;17.50;;;15.80;;
59062;SDS011;44851;45.648;9.004;2023-09-30T09:02:09;17.10;;;15.53;;
59062;SDS011;44851;45.648;9.004;2023-09-30T09:04:36;18.93;;;16.93;;
59062;SDS011;44851;45.648;9.004;2023-09-30T09:07:02;16.93;;;15.47;;
59062;SDS011;44851;45.648;9.004;2023-09-30T09:09:27;17.77;;;14.70;;
59062;SDS011;44851;45.648;9.004;2023-09-30T09:11:53;18.73;;;15.63;;
59062;SDS011;44851;45.648;9.004;2023-09-30T09:14:18;16.17;;;14.67;;
59062;SDS011;44851;45.648;9.004;2023-09-30T09:16:50;15.47;;;14.10;;
59062;SDS011;44851;45.648;9.004;2023-09-30T09:19:20;15.60;;;14.30;;
59062;SDS011;44851;45.648;9.004;2023-09-30T09:21:55;13.40;;;12.10;;
59062;SDS011;44851;45.648;9.004;2023-09-30T09:24:30;15.70;;;14.40;;
59062;SDS011;44851;45.648;9.004;2023-09-30T09:27:04;14.97;;;13.67;;
59062;SDS011;44851;45.648;9.004;2023-09-30T09:29:34;15.67;;;14.17;;
59062;SDS011;44851;45.648;9.004;2023-09-30T09:32:10;16.07;;;14.57;;
59062;SDS011;44851;45.648;9.004;2023-09-30T09:34:37;16.37;;;14.80;;
59062;SDS011;44851;45.648;9.004;2023-09-30T09:37:17;18.13;;;16.30;;
59062;SDS011;44851;45.648;9.004;2023-09-30T09:39:55;17.63;;;14.83;;
59062;SDS011;44851;45.648;9.004;2023-09-30T09:44:55;18.17;;;16.37;;
59062;SDS011;44851;45.648;9.004;2023-09-30T09:47:25;21.17;;;19.23;;
59062;SDS011;44851;45.648;9.004;2023-09-30T09:49:52;22.30;;;20.40;;
59062;SDS011;44851;45.648;9.004;2023-09-30T09:52:18;20.50;;;18.70;;
59062;SDS011;44851;45.648;9.004;2023-09-30T09:54:45;19.73;;;16.33;;
59062;SDS011;44851;45.648;9.004;2023-09-30T09:57:11;14.30;;;13.07;;
59062;SDS011;44851;45.648;9.004;2023-09-30T09:59:38;13.63;;;12.27;;
59062;SDS011;44851;45.648;9.004;2023-09-30T10:02:06;13.67;;;12.33;;
59062;SDS011;44851;45.648;9.004;2023-09-30T10:04:37;12.70;;;11.57;;
59062;SDS011;44851;45.648;9.004;2023-09-30T10:07:02;13.07;;;11.97;;
59062;SDS011;44851;45.648;9.004;2023-09-30T10:09:30;13.93;;;12.73;;
59062;SDS011;44851;45.648;9.004;2023-09-30T10:12:00;13.60;;;12.20;;
59062;SDS011;44851;45.648;9.004;2023-09-30T10:14:29;14.27;;;12.97;;
59062;SDS011;44851;45.648;9.004;2023-09-30T10:16:57;17.60;;;15.83;;
59062;SDS011;44851;45.648;9.004;2023-09-30T10:19:23;15.57;;;14.00;;
59062;SDS011;44851;45.648;9.004;2023-09-30T10:24:47;16.90;;;15.17;;
59062;SDS011;44851;45.648;9.004;2023-09-30T10:29:54;18.20;;;16.60;;
59062;SDS011;44851;45.648;9.004;2023-09-30T10:32:22;13.07;;;12.03;;
59062;SDS011;44851;45.648;9.004;2023-09-30T10:34:48;16.80;;;15.30;;
59062;SDS011;44851;45.648;9.004;2023-09-30T10:37:19;19.80;;;18.00;;
59062;SDS011;44851;45.648;9.004;2023-09-30T10:39:52;22.07;;;20.03;;
59062;SDS011;44851;45.648;9.004;2023-09-30T10:50:54;19.87;;;17.97;;
59062;SDS011;44851;45.648;9.004;2023-09-30T10:53:22;18.40;;;16.60;;
59062;SDS011;44851;45.648;9.004;2023-09-30T10:55:54;21.23;;;19.00;;
59062;SDS011;44851;45.648;9.004;2023-09-30T10:58:21;19.03;;;17.37;;
59062;SDS011;44851;45.648;9.004;2023-09-30T11:00:55;16.50;;;15.03;;
59062;SDS011;44851;45.648;9.004;2023-09-30T11:03:21;19.23;;;17.53;;
59062;SDS011;44851;45.648;9.004;2023-09-30T11:05:47;22.27;;;20.17;;
59062;SDS011;44851;45.648;9.004;2023-09-30T11:08:13;23.43;;;21.27;;
59062;SDS011;44851;45.648;9.004;2023-09-30T11:10:48;22.87;;;20.67;;
59062;SDS011;44851;45.648;9.004;2023-09-30T11:13:16;19.30;;;17.40;;
59062;SDS011;44851;45.648;9.004;2023-09-30T11:15:41;20.00;;;18.23;;
59062;SDS011;44851;45.648;9.004;2023-09-30T11:18:17;20.13;;;18.27;;
59062;SDS011;44851;45.648;9.004;2023-09-30T11:20:43;20.10;;;18.10;;
59062;SDS011;44851;45.648;9.004;2023-09-30T11:23:12;20.27;;;18.27;;
59062;SDS011;44851;45.648;9.004;2023-09-30T11:25:39;17.10;;;15.40;;
59062;SDS011;44851;45.648;9.004;2023-09-30T11:28:12;18.23;;;16.67;;
59062;SDS011;44851;45.648;9.004;2023-09-30T11:33:19;16.42;;;14.93;;
59062;SDS011;44851;45.648;9.004;2023-09-30T11:38:43;18.80;;;17.10;;
59062;SDS011;44851;45.648;9.004;2023-09-30T11:41:11;20.53;;;18.53;;
59062;SDS011;44851;45.648;9.004;2023-09-30T11:43:37;21.00;;;19.10;;
59062;SDS011;44851;45.648;9.004;2023-09-30T11:46:07;20.05;;;18.23;;
59062;SDS011;44851;45.648;9.004;2023-09-30T11:48:37;23.13;;;21.00;;
59062;SDS011;44851;45.648;9.004;2023-09-30T11:51:06;24.33;;;22.00;;
59062;SDS011;44851;45.648;9.004;2023-09-30T11:53:32;21.67;;;19.77;;
59062;SDS011;44851;45.648;9.004;2023-09-30T11:56:00;23.77;;;21.13;;
59062;SDS011;44851;45.648;9.004;2023-09-30T11:58:32;24.13;;;21.88;;
59062;SDS011;44851;45.648;9.004;2023-09-30T12:00:58;22.00;;;19.73;;
59062;SDS011;44851;45.648;9.004;2023-09-30T12:03:24;19.05;;;17.13;;
59062;SDS011;44851;45.648;9.004;2023-09-30T12:05:52;17.67;;;15.93;;
59062;SDS011;44851;45.648;9.004;2023-09-30T12:08:21;17.85;;;16.15;;
59062;SDS011;44851;45.648;9.004;2023-09-30T12:10:47;15.30;;;13.90;;
59062;SDS011;44851;45.648;9.004;2023-09-30T12:13:13;15.65;;;14.15;;
59062;SDS011;44851;45.648;9.004;2023-09-30T12:15:40;15.98;;;14.43;;
59062;SDS011;44851;45.648;9.004;2023-09-30T12:18:08;17.58;;;15.93;;
59062;SDS011;44851;45.648;9.004;2023-09-30T12:20:35;18.95;;;17.23;;
59062;SDS011;44851;45.648;9.004;2023-09-30T12:23:01;19.13;;;17.17;;
59062;SDS011;44851;45.648;9.004;2023-09-30T12:25:26;19.35;;;17.65;;
59062;SDS011;44851;45.648;9.004;2023-09-30T12:27:53;18.50;;;16.73;;
59062;SDS011;44851;45.648;9.004;2023-09-30T12:30:23;17.58;;;15.98;;
59062;SDS011;44851;45.648;9.004;2023-09-30T12:32:48;16.65;;;15.15;;
59062;SDS011;44851;45.648;9.004;2023-09-30T12:35:14;17.00;;;15.40;;
59062;SDS011;44851;45.648;9.004;2023-09-30T12:37:39;17.17;;;15.70;;
59062;SDS011;44851;45.648;9.004;2023-09-30T12:40:05;18.63;;;16.77;;
59062;SDS011;44851;45.648;9.004;2023-09-30T12:42:36;18.50;;;16.90;;
59062;SDS011;44851;45.648;9.004;2023-09-30T12:45:02;17.23;;;15.57;;
59062;SDS011;44851;45.648;9.004;2023-09-30T12:47:28;19.92;;;18.05;;
59062;SDS011;44851;45.648;9.004;2023-09-30T12:49:53;17.70;;;16.15;;
59062;SDS011;44851;45.648;9.004;2023-09-30T12:52:22;17.03;;;15.33;;
59062;SDS011;44851;45.648;9.004;2023-09-30T12:54:49;16.25;;;14.75;;
59062;SDS011;44851;45.648;9.004;2023-09-30T12:57:15;15.77;;;14.48;;
59062;SDS011;44851;45.648;9.004;2023-09-30T12:59:42;16.45;;;14.95;;
59062;SDS011;44851;45.648;9.004;2023-09-30T13:02:11;22.45;;;20.38;;
59062;SDS011;44851;45.648;9.004;2023-09-30T13:04:37;19.03;;;17.23;;
59062;SDS011;44851;45.648;9.004;2023-09-30T13:07:08;21.37;;;19.37;;
59062;SDS011;44851;45.648;9.004;2023-09-30T13:09:36;23.52;;;21.15;;
59062;SDS011;44851;45.648;9.004;2023-09-30T13:12:07;22.37;;;20.27;;
59062;SDS011;44851;45.648;9.004;2023-09-30T13:14:34;21.03;;;19.03;;
59062;SDS011;44851;45.648;9.004;2023-09-30T13:17:00;22.67;;;20.47;;
59062;SDS011;44851;45.648;9.004;2023-09-30T13:19:26;24.23;;;21.83;;
59062;SDS011;44851;45.648;9.004;2023-09-30T13:21:52;22.73;;;20.60;;
59062;SDS011;44851;45.648;9.004;2023-09-30T13:24:21;24.97;;;22.70;;
59062;SDS011;44851;45.648;9.004;2023-09-30T13:26:47;24.07;;;21.77;;
59062;SDS011;44851;45.648;9.004;2023-09-30T13:29:17;21.30;;;19.23;;
59062;SDS011;44851;45.648;9.004;2023-09-30T13:31:43;22.10;;;19.80;;
59062;SDS011;44851;45.648;9.004;2023-09-30T13:34:09;20.20;;;18.17;;
59062;SDS011;44851;45.648;9.004;2023-09-30T13:36:37;22.97;;;20.57;;
59062;SDS011;44851;45.648;9.004;2023-09-30T13:39:03;22.20;;;19.90;;
59062;SDS011;44851;45.648;9.004;2023-09-30T13:41:33;18.23;;;16.57;;
59062;SDS011;44851;45.648;9.004;2023-09-30T13:43:59;17.57;;;15.97;;
59062;SDS011;44851;45.648;9.004;2023-09-30T13:46:25;20.50;;;18.60;;
59062;SDS011;44851;45.648;9.004;2023-09-30T13:48:52;16.87;;;15.20;;
59062;SDS011;44851;45.648;9.004;2023-09-30T13:51:18;18.83;;;17.13;;
59062;SDS011;44851;45.648;9.004;2023-09-30T13:53:43;18.90;;;17.10;;
59062;SDS011;44851;45.648;9.004;2023-09-30T13:56:09;19.27;;;17.67;;
59062;SDS011;44851;45.648;9.004;2023-09-30T13:58:43;17.17;;;15.67;;
59062;SDS011;44851;45.648;9.004;2023-09-30T14:01:09;17.70;;;16.03;;
59062;SDS011;44851;45.648;9.004;2023-09-30T14:03:35;18.33;;;16.63;;
59062;SDS011;44851;45.648;9.004;2023-09-30T14:06:01;20.50;;;18.60;;
59062;SDS011;44851;45.648;9.004;2023-09-30T14:08:27;17.93;;;16.43;;
59062;SDS011;44851;45.648;9.004;2023-09-30T14:10:52;19.00;;;17.07;;
59062;SDS011;44851;45.648;9.004;2023-09-30T14:13:18;18.03;;;16.33;;
59062;SDS011;44851;45.648;9.004;2023-09-30T14:15:44;18.83;;;17.03;;
59062;SDS011;44851;45.648;9.004;2023-09-30T14:18:11;16.50;;;15.00;;
59062;SDS011;44851;45.648;9.004;2023-09-30T14:20:37;17.63;;;16.10;;
59062;SDS011;44851;45.648;9.004;2023-09-30T14:23:02;16.67;;;15.07;;
59062;SDS011;44851;45.648;9.004;2023-09-30T14:25:28;18.17;;;16.33;;
59062;SDS011;44851;45.648;9.004;2023-09-30T14:27:53;15.97;;;14.67;;
59062;SDS011;44851;45.648;9.004;2023-09-30T14:30:19;17.53;;;15.77;;
59062;SDS011;44851;45.648;9.004;2023-09-30T14:32:46;17.70;;;15.93;;
59062;SDS011;44851;45.648;9.004;2023-09-30T14:35:11;16.67;;;14.90;;
59062;SDS011;44851;45.648;9.004;2023-09-30T14:37:36;20.57;;;18.53;;
59062;SDS011;44851;45.648;9.004;2023-09-30T14:40:02;17.60;;;16.07;;